sensor_id;sensor_type;location;lat;lon;timestamp;temperature;humidity
6865;DHT22;3471;49.678;8.388;2023-03-01T00:00:13;1.90;99.90
6865;DHT22;3471;49.678;8.388;2023-03-01T00:02:38;1.80;99.90
6865;DHT22;3471;49.678;8.388;2023-03-01T00:05:04;1.80;99.90
6865;DHT22;3471;49.678;8.388;2023-03-01T00:07:30;1.80;99.90
6865;DHT22;3471;49.678;8.388;2023-03-01T00:09:55;1.80;99.90
6865;DHT22;3471;49.678;8.388;2023-03-01T00:12:22;1.80;99.90
6865;DHT22;3471;49.678;8.388;2023-03-01T00:14:47;1.80;99.90
6865;DHT22;3471;49.678;8.388;2023-03-01T00:17:13;1.80;99.90
6865;DHT22;3471;49.678;8.388;2023-03-01T00:19:38;1.80;99.90
6865;DHT22;3471;49.678;8.388;2023-03-01T00:22:04;1.70;99.90
6865;DHT22;3471;49.678;8.388;2023-03-01T00:24:30;1.70;99.90
6865;DHT22;3471;49.678;8.388;2023-03-01T00:26:55;1.70;99.90
6865;DHT22;3471;49.678;8.388;2023-03-01T00:29:23;1.70;99.90
6865;DHT22;3471;49.678;8.388;2023-03-01T00:31:49;1.60;99.90
6865;DHT22;3471;49.678;8.388;2023-03-01T00:34:14;1.60;99.90
6865;DHT22;3471;49.678;8.388;2023-03-01T00:36:40;1.60;99.90
6865;DHT22;3471;49.678;8.388;2023-03-01T00:39:10;1.60;99.90
6865;DHT22;3471;49.678;8.388;2023-03-01T00:41:36;1.60;99.90
6865;DHT22;3471;49.678;8.388;2023-03-01T00:44:02;1.60;99.90
6865;DHT22;3471;49.678;8.388;2023-03-01T00:46:28;1.60;99.90
6865;DHT22;3471;49.678;8.388;2023-03-01T00:48:55;1.60;99.90
6865;DHT22;3471;49.678;8.388;2023-03-01T00:51:24;1.60;99.90
6865;DHT22;3471;49.678;8.388;2023-03-01T00:53:57;1.60;99.90
6865;DHT22;3471;49.678;8.388;2023-03-01T00:56:24;1.60;99.90
6865;DHT22;3471;49.678;8.388;2023-03-01T00:58:49;1.60;99.90
6865;DHT22;3471;49.678;8.388;2023-03-01T01:01:20;1.60;99.90
6865;DHT22;3471;49.678;8.388;2023-03-01T01:03:52;1.60;99.90
6865;DHT22;3471;49.678;8.388;2023-03-01T01:06:23;1.60;99.90
6865;DHT22;3471;49.678;8.388;2023-03-01T01:08:50;1.60;99.90
6865;DHT22;3471;49.678;8.388;2023-03-01T01:11:17;1.60;99.90
6865;DHT22;3471;49.678;8.388;2023-03-01T01:13:45;1.60;99.90
6865;DHT22;3471;49.678;8.388;2023-03-01T01:16:10;1.60;99.90
6865;DHT22;3471;49.678;8.388;2023-03-01T01:18:36;1.60;99.90
6865;DHT22;3471;49.678;8.388;2023-03-01T01:21:10;1.50;99.90
6865;DHT22;3471;49.678;8.388;2023-03-01T01:23:37;1.50;99.90
6865;DHT22;3471;49.678;8.388;2023-03-01T01:26:14;1.40;99.90
6865;DHT22;3471;49.678;8.388;2023-03-01T01:28:40;1.40;99.90
6865;DHT22;3471;49.678;8.388;2023-03-01T01:31:06;1.30;99.90
6865;DHT22;3471;49.678;8.388;2023-03-01T01:33:32;1.30;99.90
6865;DHT22;3471;49.678;8.388;2023-03-01T01:35:57;1.30;99.90
6865;DHT22;3471;49.678;8.388;2023-03-01T01:38:23;1.20;99.90
6865;DHT22;3471;49.678;8.388;2023-03-01T01:40:50;1.20;99.90
6865;DHT22;3471;49.678;8.388;2023-03-01T01:45:46;1.10;99.90
6865;DHT22;3471;49.678;8.388;2023-03-01T01:48:16;1.10;99.90
6865;DHT22;3471;49.678;8.388;2023-03-01T01:50:43;1.10;99.90
6865;DHT22;3471;49.678;8.388;2023-03-01T01:53:13;1.10;99.90
6865;DHT22;3471;49.678;8.388;2023-03-01T01:55:44;1.00;99.90
6865;DHT22;3471;49.678;8.388;2023-03-01T01:58:14;1.10;99.90
6865;DHT22;3471;49.678;8.388;2023-03-01T02:00:40;1.00;99.90
6865;DHT22;3471;49.678;8.388;2023-03-01T02:03:11;1.00;99.90
6865;DHT22;3471;49.678;8.388;2023-03-01T02:08:36;1.10;99.90
6865;DHT22;3471;49.678;8.388;2023-03-01T02:11:03;1.00;99.90
6865;DHT22;3471;49.678;8.388;2023-03-01T02:13:34;1.00;99.90
6865;DHT22;3471;49.678;8.388;2023-03-01T02:16:11;1.10;99.90
6865;DHT22;3471;49.678;8.388;2023-03-01T02:18:39;1.10;99.90
6865;DHT22;3471;49.678;8.388;2023-03-01T02:21:08;1.10;99.90
6865;DHT22;3471;49.678;8.388;2023-03-01T02:23:36;1.10;99.90
6865;DHT22;3471;49.678;8.388;2023-03-01T02:28:41;1.10;99.90
6865;DHT22;3471;49.678;8.388;2023-03-01T02:31:09;1.10;99.90
6865;DHT22;3471;49.678;8.388;2023-03-01T02:33:55;1.10;99.90
6865;DHT22;3471;49.678;8.388;2023-03-01T02:36:31;1.10;99.90
6865;DHT22;3471;49.678;8.388;2023-03-01T02:39:01;1.10;99.90
6865;DHT22;3471;49.678;8.388;2023-03-01T02:41:30;1.10;99.90
6865;DHT22;3471;49.678;8.388;2023-03-01T02:43:56;1.10;99.90
6865;DHT22;3471;49.678;8.388;2023-03-01T02:46:24;1.10;99.90
6865;DHT22;3471;49.678;8.388;2023-03-01T02:48:55;1.10;99.90
6865;DHT22;3471;49.678;8.388;2023-03-01T02:54:25;1.10;99.90
6865;DHT22;3471;49.678;8.388;2023-03-01T02:56:53;1.10;99.90
6865;DHT22;3471;49.678;8.388;2023-03-01T02:59:21;1.10;99.90
6865;DHT22;3471;49.678;8.388;2023-03-01T03:01:47;1.10;99.90
6865;DHT22;3471;49.678;8.388;2023-03-01T03:04:15;1.10;99.90
6865;DHT22;3471;49.678;8.388;2023-03-01T03:06:47;1.10;99.90
6865;DHT22;3471;49.678;8.388;2023-03-01T03:09:14;1.10;99.90
6865;DHT22;3471;49.678;8.388;2023-03-01T03:11:40;1.20;99.90
6865;DHT22;3471;49.678;8.388;2023-03-01T03:14:07;1.10;99.90
6865;DHT22;3471;49.678;8.388;2023-03-01T03:16:40;1.20;99.90
6865;DHT22;3471;49.678;8.388;2023-03-01T03:19:06;1.20;99.90
6865;DHT22;3471;49.678;8.388;2023-03-01T03:21:32;1.20;99.90
6865;DHT22;3471;49.678;8.388;2023-03-01T03:23:58;1.20;99.90
6865;DHT22;3471;49.678;8.388;2023-03-01T03:26:24;1.20;99.90
6865;DHT22;3471;49.678;8.388;2023-03-01T03:28:50;1.20;99.90
6865;DHT22;3471;49.678;8.388;2023-03-01T03:31:15;1.20;99.90
6865;DHT22;3471;49.678;8.388;2023-03-01T03:33:41;1.20;99.90
6865;DHT22;3471;49.678;8.388;2023-03-01T03:36:07;1.20;99.90
6865;DHT22;3471;49.678;8.388;2023-03-01T03:38:38;1.20;99.90
6865;DHT22;3471;49.678;8.388;2023-03-01T03:41:07;1.20;99.90
6865;DHT22;3471;49.678;8.388;2023-03-01T03:43:35;1.20;99.90
6865;DHT22;3471;49.678;8.388;2023-03-01T03:46:01;1.20;99.90
6865;DHT22;3471;49.678;8.388;2023-03-01T03:48:32;1.20;99.90
6865;DHT22;3471;49.678;8.388;2023-03-01T03:50:58;1.20;99.90
6865;DHT22;3471;49.678;8.388;2023-03-01T03:53:26;1.20;99.90
6865;DHT22;3471;49.678;8.388;2023-03-01T03:55:52;1.20;99.90
6865;DHT22;3471;49.678;8.388;2023-03-01T03:58:20;1.20;99.90
6865;DHT22;3471;49.678;8.388;2023-03-01T04:00:47;1.20;99.90
6865;DHT22;3471;49.678;8.388;2023-03-01T04:03:15;1.20;99.90
6865;DHT22;3471;49.678;8.388;2023-03-01T04:05:41;1.30;99.90
6865;DHT22;3471;49.678;8.388;2023-03-01T04:08:08;1.20;99.90
6865;DHT22;3471;49.678;8.388;2023-03-01T04:10:38;1.20;99.90
6865;DHT22;3471;49.678;8.388;2023-03-01T04:13:06;1.30;99.90
6865;DHT22;3471;49.678;8.388;2023-03-01T04:15:32;1.20;99.90
6865;DHT22;3471;49.678;8.388;2023-03-01T04:17:58;1.20;99.90
6865;DHT22;3471;49.678;8.388;2023-03-01T04:20:27;1.20;99.90
6865;DHT22;3471;49.678;8.388;2023-03-01T04:23:20;1.20;99.90
6865;DHT22;3471;49.678;8.388;2023-03-01T04:25:53;1.20;99.90
6865;DHT22;3471;49.678;8.388;2023-03-01T04:28:21;1.20;99.90
6865;DHT22;3471;49.678;8.388;2023-03-01T04:30:47;1.20;99.90
6865;DHT22;3471;49.678;8.388;2023-03-01T04:33:13;1.20;99.90
6865;DHT22;3471;49.678;8.388;2023-03-01T04:35:38;1.10;99.90
6865;DHT22;3471;49.678;8.388;2023-03-01T04:38:05;1.10;99.90
6865;DHT22;3471;49.678;8.388;2023-03-01T04:40:32;1.20;99.90
6865;DHT22;3471;49.678;8.388;2023-03-01T04:42:57;1.20;99.90
6865;DHT22;3471;49.678;8.388;2023-03-01T04:45:23;1.20;99.90
6865;DHT22;3471;49.678;8.388;2023-03-01T04:47:49;1.20;99.90
6865;DHT22;3471;49.678;8.388;2023-03-01T04:50:18;1.20;99.90
6865;DHT22;3471;49.678;8.388;2023-03-01T04:52:48;1.20;99.90
6865;DHT22;3471;49.678;8.388;2023-03-01T04:55:14;1.20;99.90
6865;DHT22;3471;49.678;8.388;2023-03-01T04:57:40;1.20;99.90
6865;DHT22;3471;49.678;8.388;2023-03-01T05:00:09;1.30;99.90
6865;DHT22;3471;49.678;8.388;2023-03-01T05:02:56;1.30;99.90
6865;DHT22;3471;49.678;8.388;2023-03-01T05:05:26;1.30;99.90
6865;DHT22;3471;49.678;8.388;2023-03-01T05:07:57;1.40;99.90
6865;DHT22;3471;49.678;8.388;2023-03-01T05:10:24;1.40;99.90
6865;DHT22;3471;49.678;8.388;2023-03-01T05:12:50;1.50;99.90
6865;DHT22;3471;49.678;8.388;2023-03-01T05:15:17;1.50;99.90
6865;DHT22;3471;49.678;8.388;2023-03-01T05:17:43;1.50;99.90
6865;DHT22;3471;49.678;8.388;2023-03-01T05:20:10;1.60;99.90
6865;DHT22;3471;49.678;8.388;2023-03-01T05:22:36;1.60;99.90
6865;DHT22;3471;49.678;8.388;2023-03-01T05:25:02;1.60;99.90
6865;DHT22;3471;49.678;8.388;2023-03-01T05:27:28;1.60;99.90
6865;DHT22;3471;49.678;8.388;2023-03-01T05:29:55;1.60;99.90
6865;DHT22;3471;49.678;8.388;2023-03-01T05:32:20;1.60;99.90
6865;DHT22;3471;49.678;8.388;2023-03-01T05:34:46;1.60;99.90
6865;DHT22;3471;49.678;8.388;2023-03-01T05:37:12;1.60;99.90
6865;DHT22;3471;49.678;8.388;2023-03-01T05:39:38;1.50;99.90
6865;DHT22;3471;49.678;8.388;2023-03-01T05:42:04;1.60;99.90
6865;DHT22;3471;49.678;8.388;2023-03-01T05:44:30;1.60;99.90
6865;DHT22;3471;49.678;8.388;2023-03-01T05:46:56;1.60;99.90
6865;DHT22;3471;49.678;8.388;2023-03-01T05:49:22;1.60;99.90
6865;DHT22;3471;49.678;8.388;2023-03-01T05:51:52;1.70;99.90
6865;DHT22;3471;49.678;8.388;2023-03-01T05:54:19;1.70;99.90
6865;DHT22;3471;49.678;8.388;2023-03-01T05:56:45;1.70;99.90
6865;DHT22;3471;49.678;8.388;2023-03-01T05:59:11;1.70;99.90
6865;DHT22;3471;49.678;8.388;2023-03-01T06:01:37;1.70;99.90
6865;DHT22;3471;49.678;8.388;2023-03-01T06:04:03;1.70;99.90
6865;DHT22;3471;49.678;8.388;2023-03-01T06:06:33;1.70;99.90
6865;DHT22;3471;49.678;8.388;2023-03-01T06:08:58;1.70;99.90
6865;DHT22;3471;49.678;8.388;2023-03-01T06:11:24;1.80;99.90
6865;DHT22;3471;49.678;8.388;2023-03-01T06:13:50;1.80;99.90
6865;DHT22;3471;49.678;8.388;2023-03-01T06:16:15;1.80;99.90
6865;DHT22;3471;49.678;8.388;2023-03-01T06:18:41;1.80;99.90
6865;DHT22;3471;49.678;8.388;2023-03-01T06:21:08;1.80;99.90
6865;DHT22;3471;49.678;8.388;2023-03-01T06:23:34;1.80;99.90
6865;DHT22;3471;49.678;8.388;2023-03-01T06:26:04;1.80;99.90
6865;DHT22;3471;49.678;8.388;2023-03-01T06:28:30;1.80;99.90
6865;DHT22;3471;49.678;8.388;2023-03-01T06:30:55;1.80;99.90
6865;DHT22;3471;49.678;8.388;2023-03-01T06:33:21;1.80;99.90
6865;DHT22;3471;49.678;8.388;2023-03-01T06:35:49;1.90;99.90
6865;DHT22;3471;49.678;8.388;2023-03-01T06:38:15;1.90;99.90
6865;DHT22;3471;49.678;8.388;2023-03-01T06:40:44;1.90;99.90
6865;DHT22;3471;49.678;8.388;2023-03-01T06:43:09;2.00;99.90
6865;DHT22;3471;49.678;8.388;2023-03-01T06:45:35;2.00;99.90
6865;DHT22;3471;49.678;8.388;2023-03-01T06:48:05;2.10;99.90
6865;DHT22;3471;49.678;8.388;2023-03-01T06:50:32;2.10;99.90
6865;DHT22;3471;49.678;8.388;2023-03-01T06:52:58;2.20;99.90
6865;DHT22;3471;49.678;8.388;2023-03-01T06:55:24;2.30;99.90
6865;DHT22;3471;49.678;8.388;2023-03-01T06:57:54;2.40;99.90
6865;DHT22;3471;49.678;8.388;2023-03-01T07:00:21;2.40;99.90
6865;DHT22;3471;49.678;8.388;2023-03-01T07:02:47;2.50;99.90
6865;DHT22;3471;49.678;8.388;2023-03-01T07:05:12;2.60;99.90
6865;DHT22;3471;49.678;8.388;2023-03-01T07:07:38;2.60;99.90
6865;DHT22;3471;49.678;8.388;2023-03-01T07:10:04;2.70;99.90
6865;DHT22;3471;49.678;8.388;2023-03-01T07:12:30;2.70;99.90
6865;DHT22;3471;49.678;8.388;2023-03-01T07:14:55;2.70;99.90
6865;DHT22;3471;49.678;8.388;2023-03-01T07:17:21;2.80;99.90
6865;DHT22;3471;49.678;8.388;2023-03-01T07:19:46;2.90;99.90
6865;DHT22;3471;49.678;8.388;2023-03-01T07:22:12;2.90;99.90
6865;DHT22;3471;49.678;8.388;2023-03-01T07:24:37;3.00;99.90
6865;DHT22;3471;49.678;8.388;2023-03-01T07:27:03;3.10;99.90
6865;DHT22;3471;49.678;8.388;2023-03-01T07:29:29;3.20;99.90
6865;DHT22;3471;49.678;8.388;2023-03-01T07:31:54;3.20;99.90
6865;DHT22;3471;49.678;8.388;2023-03-01T07:34:20;3.30;99.90
6865;DHT22;3471;49.678;8.388;2023-03-01T07:36:45;3.30;99.90
6865;DHT22;3471;49.678;8.388;2023-03-01T07:39:11;3.30;99.90
6865;DHT22;3471;49.678;8.388;2023-03-01T07:41:37;3.30;99.90
6865;DHT22;3471;49.678;8.388;2023-03-01T07:44:03;3.40;99.90
6865;DHT22;3471;49.678;8.388;2023-03-01T07:46:28;3.40;99.90
6865;DHT22;3471;49.678;8.388;2023-03-01T07:48:54;3.40;99.90
6865;DHT22;3471;49.678;8.388;2023-03-01T07:51:19;3.40;99.90
6865;DHT22;3471;49.678;8.388;2023-03-01T07:53:48;3.50;99.90
6865;DHT22;3471;49.678;8.388;2023-03-01T07:56:15;3.60;99.90
6865;DHT22;3471;49.678;8.388;2023-03-01T07:58:43;3.60;99.90
6865;DHT22;3471;49.678;8.388;2023-03-01T08:01:12;3.70;99.90
6865;DHT22;3471;49.678;8.388;2023-03-01T08:03:38;3.80;99.90
6865;DHT22;3471;49.678;8.388;2023-03-01T08:06:05;3.80;99.90
6865;DHT22;3471;49.678;8.388;2023-03-01T08:08:32;3.90;99.90
6865;DHT22;3471;49.678;8.388;2023-03-01T08:10:59;4.00;99.90
6865;DHT22;3471;49.678;8.388;2023-03-01T08:13:25;4.10;99.90
6865;DHT22;3471;49.678;8.388;2023-03-01T08:15:51;4.10;99.90
6865;DHT22;3471;49.678;8.388;2023-03-01T08:18:18;4.20;99.90
6865;DHT22;3471;49.678;8.388;2023-03-01T08:20:44;4.30;99.90
6865;DHT22;3471;49.678;8.388;2023-03-01T08:23:10;4.40;99.90
6865;DHT22;3471;49.678;8.388;2023-03-01T08:25:35;4.40;99.90
6865;DHT22;3471;49.678;8.388;2023-03-01T08:28:01;4.50;99.90
6865;DHT22;3471;49.678;8.388;2023-03-01T08:30:27;4.60;99.90
6865;DHT22;3471;49.678;8.388;2023-03-01T08:32:52;4.70;99.90
6865;DHT22;3471;49.678;8.388;2023-03-01T08:35:19;4.80;99.90
6865;DHT22;3471;49.678;8.388;2023-03-01T08:37:45;4.80;99.90
6865;DHT22;3471;49.678;8.388;2023-03-01T08:40:11;4.80;99.90
6865;DHT22;3471;49.678;8.388;2023-03-01T08:42:39;4.90;99.90
6865;DHT22;3471;49.678;8.388;2023-03-01T08:45:05;4.90;99.90
6865;DHT22;3471;49.678;8.388;2023-03-01T08:47:31;5.00;99.90
6865;DHT22;3471;49.678;8.388;2023-03-01T08:49:59;5.10;99.90
6865;DHT22;3471;49.678;8.388;2023-03-01T08:52:24;5.20;99.90
6865;DHT22;3471;49.678;8.388;2023-03-01T08:54:51;5.30;99.90
6865;DHT22;3471;49.678;8.388;2023-03-01T08:57:17;5.50;99.90
6865;DHT22;3471;49.678;8.388;2023-03-01T08:59:42;5.60;99.90
6865;DHT22;3471;49.678;8.388;2023-03-01T09:02:13;5.60;99.90
6865;DHT22;3471;49.678;8.388;2023-03-01T09:04:40;5.80;99.90
6865;DHT22;3471;49.678;8.388;2023-03-01T09:07:06;5.90;99.90
6865;DHT22;3471;49.678;8.388;2023-03-01T09:09:31;5.90;99.90
6865;DHT22;3471;49.678;8.388;2023-03-01T09:11:57;5.90;99.90
6865;DHT22;3471;49.678;8.388;2023-03-01T09:14:22;5.90;99.90
6865;DHT22;3471;49.678;8.388;2023-03-01T09:16:48;5.90;99.90
6865;DHT22;3471;49.678;8.388;2023-03-01T09:19:14;6.00;99.90
6865;DHT22;3471;49.678;8.388;2023-03-01T09:21:40;6.10;99.90
6865;DHT22;3471;49.678;8.388;2023-03-01T09:24:12;6.20;99.90
6865;DHT22;3471;49.678;8.388;2023-03-01T09:26:38;6.30;99.90
6865;DHT22;3471;49.678;8.388;2023-03-01T09:29:04;6.40;99.90
6865;DHT22;3471;49.678;8.388;2023-03-01T09:31:29;6.50;99.90
6865;DHT22;3471;49.678;8.388;2023-03-01T09:33:55;6.60;99.90
6865;DHT22;3471;49.678;8.388;2023-03-01T09:36:22;6.70;99.90
6865;DHT22;3471;49.678;8.388;2023-03-01T09:38:49;6.80;99.90
6865;DHT22;3471;49.678;8.388;2023-03-01T09:41:22;7.00;99.90
6865;DHT22;3471;49.678;8.388;2023-03-01T09:43:55;7.10;99.90
6865;DHT22;3471;49.678;8.388;2023-03-01T09:46:25;7.30;99.90
6865;DHT22;3471;49.678;8.388;2023-03-01T09:48:56;7.40;99.90
6865;DHT22;3471;49.678;8.388;2023-03-01T09:51:34;7.60;99.90
6865;DHT22;3471;49.678;8.388;2023-03-01T09:54:04;7.70;99.90
6865;DHT22;3471;49.678;8.388;2023-03-01T09:56:44;7.80;99.90
6865;DHT22;3471;49.678;8.388;2023-03-01T10:01:48;8.00;99.90
6865;DHT22;3471;49.678;8.388;2023-03-01T10:09:40;8.50;99.90
6865;DHT22;3471;49.678;8.388;2023-03-01T10:12:30;8.60;99.90
6865;DHT22;3471;49.678;8.388;2023-03-01T10:17:52;9.10;99.90
6865;DHT22;3471;49.678;8.388;2023-03-01T10:20:24;9.40;99.90
6865;DHT22;3471;49.678;8.388;2023-03-01T10:22:50;9.60;99.90
6865;DHT22;3471;49.678;8.388;2023-03-01T10:27:54;10.00;98.80
6865;DHT22;3471;49.678;8.388;2023-03-01T10:32:46;10.40;97.40
6865;DHT22;3471;49.678;8.388;2023-03-01T10:35:25;10.60;97.10
6865;DHT22;3471;49.678;8.388;2023-03-01T10:38:14;10.70;96.80
6865;DHT22;3471;49.678;8.388;2023-03-01T10:41:03;10.90;97.60
6865;DHT22;3471;49.678;8.388;2023-03-01T10:43:51;11.10;97.70
6865;DHT22;3471;49.678;8.388;2023-03-01T10:49:22;11.60;96.70
6865;DHT22;3471;49.678;8.388;2023-03-01T10:51:52;11.90;96.50
6865;DHT22;3471;49.678;8.388;2023-03-01T10:54:33;12.10;95.00
6865;DHT22;3471;49.678;8.388;2023-03-01T10:57:01;12.30;95.40
6865;DHT22;3471;49.678;8.388;2023-03-01T10:59:34;12.50;95.30
6865;DHT22;3471;49.678;8.388;2023-03-01T11:04:35;12.60;94.90
6865;DHT22;3471;49.678;8.388;2023-03-01T11:07:02;12.80;94.70
6865;DHT22;3471;49.678;8.388;2023-03-01T11:09:32;13.00;95.10
6865;DHT22;3471;49.678;8.388;2023-03-01T11:12:03;13.20;94.30
6865;DHT22;3471;49.678;8.388;2023-03-01T11:14:37;13.50;93.50
6865;DHT22;3471;49.678;8.388;2023-03-01T11:19:28;14.10;92.30
6865;DHT22;3471;49.678;8.388;2023-03-01T11:22:18;14.30;92.50
6865;DHT22;3471;49.678;8.388;2023-03-01T11:24:51;14.50;92.10
6865;DHT22;3471;49.678;8.388;2023-03-01T11:27:22;14.80;90.50
6865;DHT22;3471;49.678;8.388;2023-03-01T11:32:38;15.40;87.50
6865;DHT22;3471;49.678;8.388;2023-03-01T11:35:26;15.60;89.70
6865;DHT22;3471;49.678;8.388;2023-03-01T11:38:21;15.80;86.20
6865;DHT22;3471;49.678;8.388;2023-03-01T11:48:44;16.40;83.20
6865;DHT22;3471;49.678;8.388;2023-03-01T11:51:23;16.60;85.90
6865;DHT22;3471;49.678;8.388;2023-03-01T12:07:00;18.20;74.70
6865;DHT22;3471;49.678;8.388;2023-03-01T12:09:49;18.40;74.80
6865;DHT22;3471;49.678;8.388;2023-03-01T12:24:14;18.90;72.10
6865;DHT22;3471;49.678;8.388;2023-03-01T12:26:33;19.10;67.80
6865;DHT22;3471;49.678;8.388;2023-03-01T12:37:36;20.20;68.90
6865;DHT22;3471;49.678;8.388;2023-03-01T12:46:03;21.30;67.10
6865;DHT22;3471;49.678;8.388;2023-03-01T12:49:05;21.60;66.80
6865;DHT22;3471;49.678;8.388;2023-03-01T12:51:35;22.00;65.10
6865;DHT22;3471;49.678;8.388;2023-03-01T12:54:14;22.20;63.10
6865;DHT22;3471;49.678;8.388;2023-03-01T12:56:40;22.40;63.40
6865;DHT22;3471;49.678;8.388;2023-03-01T12:59:18;22.60;62.50
6865;DHT22;3471;49.678;8.388;2023-03-01T13:07:41;22.90;60.00
6865;DHT22;3471;49.678;8.388;2023-03-01T13:17:51;23.60;58.30
6865;DHT22;3471;49.678;8.388;2023-03-01T13:21:07;23.80;57.40
6865;DHT22;3471;49.678;8.388;2023-03-01T13:26:07;24.00;57.10
6865;DHT22;3471;49.678;8.388;2023-03-01T13:33:49;24.50;55.60
6865;DHT22;3471;49.678;8.388;2023-03-01T13:44:31;24.90;50.90
6865;DHT22;3471;49.678;8.388;2023-03-01T13:52:43;24.20;50.20
6865;DHT22;3471;49.678;8.388;2023-03-01T13:57:44;23.90;54.00
6865;DHT22;3471;49.678;8.388;2023-03-01T14:00:32;23.70;53.20
6865;DHT22;3471;49.678;8.388;2023-03-01T14:05:32;23.70;55.20
6865;DHT22;3471;49.678;8.388;2023-03-01T14:07:58;23.70;51.50
6865;DHT22;3471;49.678;8.388;2023-03-01T14:10:31;23.60;52.30
6865;DHT22;3471;49.678;8.388;2023-03-01T14:13:27;23.50;50.90
6865;DHT22;3471;49.678;8.388;2023-03-01T14:21:29;23.70;53.30
6865;DHT22;3471;49.678;8.388;2023-03-01T14:23:57;24.00;52.60
6865;DHT22;3471;49.678;8.388;2023-03-01T14:26:23;24.00;51.90
6865;DHT22;3471;49.678;8.388;2023-03-01T14:28:49;23.80;51.70
6865;DHT22;3471;49.678;8.388;2023-03-01T14:31:35;23.50;52.00
6865;DHT22;3471;49.678;8.388;2023-03-01T14:34:02;23.30;52.10
6865;DHT22;3471;49.678;8.388;2023-03-01T14:36:30;23.00;53.40
6865;DHT22;3471;49.678;8.388;2023-03-01T14:38:56;22.90;51.70
6865;DHT22;3471;49.678;8.388;2023-03-01T14:41:27;22.70;54.90
6865;DHT22;3471;49.678;8.388;2023-03-01T14:43:58;22.70;50.10
6865;DHT22;3471;49.678;8.388;2023-03-01T14:48:57;22.20;51.80
6865;DHT22;3471;49.678;8.388;2023-03-01T14:51:40;22.10;50.00
6865;DHT22;3471;49.678;8.388;2023-03-01T14:54:29;22.00;51.40
6865;DHT22;3471;49.678;8.388;2023-03-01T14:56:59;22.00;50.40
6865;DHT22;3471;49.678;8.388;2023-03-01T14:59:26;21.80;51.10
6865;DHT22;3471;49.678;8.388;2023-03-01T15:01:55;21.80;52.10
6865;DHT22;3471;49.678;8.388;2023-03-01T15:04:23;21.70;52.60
6865;DHT22;3471;49.678;8.388;2023-03-01T15:06:54;21.70;49.50
6865;DHT22;3471;49.678;8.388;2023-03-01T15:09:21;21.60;50.70
6865;DHT22;3471;49.678;8.388;2023-03-01T15:11:48;21.50;50.40
6865;DHT22;3471;49.678;8.388;2023-03-01T15:14:40;21.40;51.80
6865;DHT22;3471;49.678;8.388;2023-03-01T15:19:53;21.20;52.80
6865;DHT22;3471;49.678;8.388;2023-03-01T15:22:19;21.10;51.30
6865;DHT22;3471;49.678;8.388;2023-03-01T15:24:49;20.70;52.90
6865;DHT22;3471;49.678;8.388;2023-03-01T15:27:25;20.00;51.50
6865;DHT22;3471;49.678;8.388;2023-03-01T15:30:02;19.10;51.00
6865;DHT22;3471;49.678;8.388;2023-03-01T15:32:33;18.00;51.60
6865;DHT22;3471;49.678;8.388;2023-03-01T15:35:00;17.00;52.40
6865;DHT22;3471;49.678;8.388;2023-03-01T15:37:47;16.20;55.80
6865;DHT22;3471;49.678;8.388;2023-03-01T15:40:31;15.30;55.70
6865;DHT22;3471;49.678;8.388;2023-03-01T15:43:02;14.40;57.50
6865;DHT22;3471;49.678;8.388;2023-03-01T15:45:30;13.80;57.80
6865;DHT22;3471;49.678;8.388;2023-03-01T15:48:02;13.40;61.90
6865;DHT22;3471;49.678;8.388;2023-03-01T15:50:33;13.00;61.10
6865;DHT22;3471;49.678;8.388;2023-03-01T15:53:01;12.60;60.40
6865;DHT22;3471;49.678;8.388;2023-03-01T15:55:31;12.40;63.10
6865;DHT22;3471;49.678;8.388;2023-03-01T16:00:32;11.90;61.80
6865;DHT22;3471;49.678;8.388;2023-03-01T16:02:58;11.70;63.70
6865;DHT22;3471;49.678;8.388;2023-03-01T16:07:52;11.30;64.40
6865;DHT22;3471;49.678;8.388;2023-03-01T16:10:18;11.20;64.90
6865;DHT22;3471;49.678;8.388;2023-03-01T16:12:44;11.10;65.70
6865;DHT22;3471;49.678;8.388;2023-03-01T16:17:52;10.90;65.00
6865;DHT22;3471;49.678;8.388;2023-03-01T16:20:18;10.80;66.40
6865;DHT22;3471;49.678;8.388;2023-03-01T16:22:44;10.60;66.60
6865;DHT22;3471;49.678;8.388;2023-03-01T16:25:12;10.50;66.40
6865;DHT22;3471;49.678;8.388;2023-03-01T16:27:38;10.50;70.30
6865;DHT22;3471;49.678;8.388;2023-03-01T16:30:05;10.40;67.70
6865;DHT22;3471;49.678;8.388;2023-03-01T16:32:31;10.30;67.10
6865;DHT22;3471;49.678;8.388;2023-03-01T16:34:57;10.20;69.40
6865;DHT22;3471;49.678;8.388;2023-03-01T16:37:22;10.20;69.90
6865;DHT22;3471;49.678;8.388;2023-03-01T16:39:48;10.10;69.80
6865;DHT22;3471;49.678;8.388;2023-03-01T16:42:17;10.00;71.30
6865;DHT22;3471;49.678;8.388;2023-03-01T16:44:43;10.00;69.80
6865;DHT22;3471;49.678;8.388;2023-03-01T16:47:08;10.00;69.80
6865;DHT22;3471;49.678;8.388;2023-03-01T16:49:34;9.90;71.00
6865;DHT22;3471;49.678;8.388;2023-03-01T16:51:59;9.90;72.00
6865;DHT22;3471;49.678;8.388;2023-03-01T16:54:25;9.80;77.00
6865;DHT22;3471;49.678;8.388;2023-03-01T16:56:50;9.70;77.00
6865;DHT22;3471;49.678;8.388;2023-03-01T16:59:16;9.80;75.60
6865;DHT22;3471;49.678;8.388;2023-03-01T17:01:43;9.70;74.50
6865;DHT22;3471;49.678;8.388;2023-03-01T17:04:12;9.70;74.30
6865;DHT22;3471;49.678;8.388;2023-03-01T17:06:38;9.50;74.60
6865;DHT22;3471;49.678;8.388;2023-03-01T17:09:04;9.50;75.20
6865;DHT22;3471;49.678;8.388;2023-03-01T17:11:30;9.40;75.20
6865;DHT22;3471;49.678;8.388;2023-03-01T17:13:56;9.30;81.50
6865;DHT22;3471;49.678;8.388;2023-03-01T17:16:21;9.20;80.50
6865;DHT22;3471;49.678;8.388;2023-03-01T17:18:47;9.10;81.20
6865;DHT22;3471;49.678;8.388;2023-03-01T17:21:13;9.00;81.70
6865;DHT22;3471;49.678;8.388;2023-03-01T17:23:41;8.90;80.40
6865;DHT22;3471;49.678;8.388;2023-03-01T17:26:07;8.80;80.10
6865;DHT22;3471;49.678;8.388;2023-03-01T17:28:34;8.70;80.90
6865;DHT22;3471;49.678;8.388;2023-03-01T17:31:01;8.70;80.10
6865;DHT22;3471;49.678;8.388;2023-03-01T17:33:27;8.60;80.50
6865;DHT22;3471;49.678;8.388;2023-03-01T17:35:55;8.50;81.30
6865;DHT22;3471;49.678;8.388;2023-03-01T17:38:21;8.40;84.00
6865;DHT22;3471;49.678;8.388;2023-03-01T17:40:47;8.30;84.30
6865;DHT22;3471;49.678;8.388;2023-03-01T17:43:14;8.20;82.00
6865;DHT22;3471;49.678;8.388;2023-03-01T17:45:40;8.10;84.40
6865;DHT22;3471;49.678;8.388;2023-03-01T17:48:09;8.10;83.00
6865;DHT22;3471;49.678;8.388;2023-03-01T17:50:37;7.90;86.10
6865;DHT22;3471;49.678;8.388;2023-03-01T17:53:05;7.90;83.00
6865;DHT22;3471;49.678;8.388;2023-03-01T17:55:39;7.90;84.40
6865;DHT22;3471;49.678;8.388;2023-03-01T17:58:06;7.90;82.20
6865;DHT22;3471;49.678;8.388;2023-03-01T18:00:32;7.80;86.70
6865;DHT22;3471;49.678;8.388;2023-03-01T18:02:58;7.70;85.80
6865;DHT22;3471;49.678;8.388;2023-03-01T18:05:24;7.70;85.20
6865;DHT22;3471;49.678;8.388;2023-03-01T18:07:51;7.60;86.40
6865;DHT22;3471;49.678;8.388;2023-03-01T18:10:17;7.60;85.00
6865;DHT22;3471;49.678;8.388;2023-03-01T18:12:43;7.50;86.30
6865;DHT22;3471;49.678;8.388;2023-03-01T18:15:10;7.50;86.00
6865;DHT22;3471;49.678;8.388;2023-03-01T18:17:36;7.40;87.50
6865;DHT22;3471;49.678;8.388;2023-03-01T18:20:02;7.30;87.70
6865;DHT22;3471;49.678;8.388;2023-03-01T18:22:27;7.30;85.20
6865;DHT22;3471;49.678;8.388;2023-03-01T18:24:53;7.30;86.60
6865;DHT22;3471;49.678;8.388;2023-03-01T18:27:19;7.20;85.30
6865;DHT22;3471;49.678;8.388;2023-03-01T18:29:44;7.20;85.60
6865;DHT22;3471;49.678;8.388;2023-03-01T18:32:10;7.20;85.30
6865;DHT22;3471;49.678;8.388;2023-03-01T18:34:35;7.20;87.30
6865;DHT22;3471;49.678;8.388;2023-03-01T18:37:01;7.10;86.50
6865;DHT22;3471;49.678;8.388;2023-03-01T18:39:27;7.10;86.00
6865;DHT22;3471;49.678;8.388;2023-03-01T18:41:52;7.10;85.80
6865;DHT22;3471;49.678;8.388;2023-03-01T18:44:18;7.00;87.30
6865;DHT22;3471;49.678;8.388;2023-03-01T18:46:44;7.00;86.80